Chippewa County International Airport
KCIU : now visible

Airfield :











YOU CAN JOIN US ON...

 
LOGIN :

Register | Disclaimer

   EN    FR    IT 

 









Legend :    VFR   Marginal VFR   IFR   Intensive IFR   Very Intensive IFR
Visi :
Ceiling :
>= 8 km
>= 3000ft
5 to 8 km
1000 to 3000 ft
1500m to 5 km
500 to 1000 ft
800 to 1500m
200 to 500 ft
< 800m
< 200 ft
Symbols :   Thunderstorms  Fog  Heavy snow  Heavy precipitations  Wind > 20 kt






- Airport Elevation : 800 ft
- IATA code : CIU


KCIU - Chippewa County International

CURRENT METAR :
  • 131356Z AUTO 13010KT 10SM BKN050 OVC120 M08/M09 A3018 RMK AO2 SNE26 SLP233 P0000 T10781089 FZRANO

EXPIRED METARs :
  • 131340Z AUTO 12010KT 10SM FEW020 BKN050 OVC110 M08/M09 A3017 RMK AO2 SNE26 P0000 FZRANO
  • 131256Z AUTO 12010KT 3SM -SN BR BKN018 OVC024 M10/M11 A3018 RMK AO2 SLP234 P0000 T11001106 FZRANO
  • 131156Z AUTO 10010KT 7SM -SN FEW016 BKN027 OVC038 M11/M12 A3019 RMK AO2 SLP240 P0000 60000 T11111122 11111 21144 56010 FZRANO
  • 131133Z AUTO 10010KT 8SM -SN FEW003 BKN038 OVC045 M12/M13 A3019 RMK AO2 P0000 FZRANO

TAF N/A



MET'MAP, your aeronautical weather chart ! - Copyright ORBIFLY December 2007 - Disclaimer

ORBIFLY MET'MAP TEAM :

Programming & Development : Alexandra Zaïnal
Concept & Development : Baudouin d'Aumeries
Co-Development & Prog : Marc-Olivier Méhu
Technical & hardware support : Manuel Goepfert

Contact : metmap@orbifly.com




SOURCES & CREDITS :

   NOAA       Earth
Advisory